Time;durP1;ratioP1;P1;durP2;ratioP2;P2;SDS_P1;SDS_P2;PMS_P1;PMS_P2;Temp;Humidity;BMP_temperature;BMP_pressure;BME280_temperature;BME280_humidity;BME280_pressure;Samples;Min_cycle;Max_cycle;Signal;HPM_P1;HPM_P2
2022/10/17 00:01:28;;;;;;;22.33;3.40;;;;;;;9.73;100.00;101942.78;5029626;28;20206;-44
2022/10/17 00:03:54;;;;;;;16.50;3.28;;;;;;;9.71;100.00;101956.22;5021479;28;20200;-44
2022/10/17 00:06:19;;;;;;;12.80;2.70;;;;;;;9.66;100.00;101953.63;5022741;28;20183;-46
2022/10/17 00:08:45;;;;;;;14.38;3.00;;;;;;;9.72;100.00;101949.94;5021684;28;20605;-45
2022/10/17 00:11:17;;;;;;;14.40;3.22;;;;;;;9.76;100.00;101954.34;5026648;28;20196;-45
2022/10/17 00:13:44;;;;;;;15.10;3.10;;;;;;;9.69;100.00;101958.03;5026087;28;20205;-44
2022/10/17 00:16:10;;;;;;;16.80;2.92;;;;;;;9.55;100.00;101950.22;5030817;28;20210;-46
2022/10/17 00:18:36;;;;;;;16.20;2.83;;;;;;;9.60;100.00;101948.38;5025204;28;20224;-46
2022/10/17 00:21:01;;;;;;;9.88;2.80;;;;;;;9.66;100.00;101948.28;5023885;28;20197;-45
2022/10/17 00:23:29;;;;;;;12.75;2.95;;;;;;;9.60;100.00;101952.81;5019726;28;20246;-47
2022/10/17 00:26:03;;;;;;;9.68;3.13;;;;;;;9.56;100.00;101951.13;5029637;28;20571;-46
2022/10/17 00:28:29;;;;;;;17.25;2.80;;;;;;;9.52;100.00;101957.44;5029204;28;20591;-47
2022/10/17 00:31:04;;;;;;;8.80;2.35;;;;;;;9.46;100.00;101966.41;5018339;28;20252;-45
2022/10/17 00:33:30;;;;;;;9.88;2.47;;;;;;;9.51;100.00;101966.34;5020586;28;20223;-48
2022/10/17 00:36:07;;;;;;;14.82;3.03;;;;;;;9.52;100.00;101944.94;5026024;28;20206;-46
2022/10/17 00:38:34;;;;;;;17.67;3.60;;;;;;;9.42;100.00;101957.59;5027879;28;20270;-45
2022/10/17 00:41:00;;;;;;;14.55;3.05;;;;;;;9.39;100.00;101944.22;5019947;28;20187;-45
2022/10/17 00:43:26;;;;;;;16.83;3.05;;;;;;;9.33;100.00;101962.16;5000098;28;20195;-45
2022/10/17 00:45:52;;;;;;;11.02;2.45;;;;;;;9.38;100.00;101961.22;5016780;28;20188;-45
2022/10/17 00:48:18;;;;;;;12.45;2.75;;;;;;;9.45;100.00;101962.00;5002883;28;20172;-45
2022/10/17 00:50:47;;;;;;;18.40;2.75;;;;;;;9.37;100.00;101966.56;5023030;28;20707;-44
2022/10/17 00:53:14;;;;;;;9.52;2.42;;;;;;;9.46;100.00;101947.69;5025061;28;20286;-45
2022/10/17 00:55:57;;;;;;;14.82;3.03;;;;;;;9.32;100.00;101958.63;5026650;28;20268;-46
2022/10/17 00:58:23;;;;;;;13.25;2.92;;;;;;;9.31;100.00;101954.16;5013110;28;20615;-45
2022/10/17 01:00:49;;;;;;;16.88;3.55;;;;;;;9.16;100.00;101957.97;4988091;28;20192;-45
2022/10/17 01:03:15;;;;;;;17.10;3.13;;;;;;;9.14;100.00;101953.50;5020513;28;20983;-47
2022/10/17 01:05:41;;;;;;;17.38;3.00;;;;;;;9.15;100.00;101952.63;5002372;28;20315;-44
2022/10/17 01:08:07;;;;;;;18.92;2.90;;;;;;;9.12;100.00;101950.88;5027350;28;20188;-46
2022/10/17 01:11:00;;;;;;;15.50;3.22;;;;;;;9.16;100.00;101941.00;5023478;28;20208;-46
2022/10/17 01:13:57;;;;;;;15.82;3.35;;;;;;;9.13;100.00;101941.06;5018027;28;20222;-43
2022/10/17 01:17:00;;;;;;;18.20;2.85;;;;;;;9.21;100.00;101942.72;5001595;28;20272;-45
2022/10/17 01:19:50;;;;;;;14.38;3.47;;;;;;;9.28;100.00;101967.59;5022545;28;20184;-46
2022/10/17 01:22:25;;;;;;;16.73;3.20;;;;;;;9.37;100.00;101962.09;5028110;28;20635;-45
2022/10/17 01:25:18;;;;;;;14.98;3.08;;;;;;;9.44;100.00;101958.41;5026984;28;20254;-45
2022/10/17 01:27:47;;;;;;;11.98;2.63;;;;;;;9.54;100.00;101952.94;5030393;28;20199;-46
2022/10/17 01:30:37;;;;;;;16.30;2.85;;;;;;;9.56;100.00;101956.47;5012093;28;20195;-46
2022/10/17 01:33:18;;;;;;;19.77;3.45;;;;;;;9.56;100.00;101960.03;5004416;28;20231;-46
2022/10/17 01:35:49;;;;;;;16.17;2.40;;;;;;;9.64;100.00;101954.53;5011968;28;20216;-45
2022/10/17 01:38:22;;;;;;;16.40;3.25;;;;;;;9.62;100.00;101954.59;5027718;28;20212;-45
2022/10/17 01:41:10;;;;;;;29.05;4.30;;;;;;;9.49;100.00;101958.38;5005749;28;20197;-45
2022/10/17 01:43:38;;;;;;;18.98;3.03;;;;;;;9.47;100.00;101957.50;5025923;28;20231;-45
2022/10/17 01:46:11;;;;;;;19.23;3.42;;;;;;;9.45;100.00;101953.97;5005314;28;20227;-45
2022/10/17 01:48:41;;;;;;;14.63;2.88;;;;;;;9.47;100.00;101952.16;5021024;28;20187;-46
2022/10/17 01:51:32;;;;;;;10.30;2.50;;;;;;;9.60;100.00;101944.78;5015442;28;20180;-45
2022/10/17 01:54:03;;;;;;;16.38;3.95;;;;;;;9.56;100.00;101943.09;5015393;28;20219;-45
2022/10/17 01:56:31;;;;;;;18.30;3.30;;;;;;;9.64;100.00;101944.75;5018988;28;20202;-47
2022/10/17 01:59:07;;;;;;;14.65;2.80;;;;;;;9.73;100.00;101933.00;5031407;28;20290;-45
2022/10/17 02:01:36;;;;;;;17.17;3.42;;;;;;;9.84;100.00;101932.81;5016259;28;20185;-43
2022/10/17 02:04:04;;;;;;;13.25;2.80;;;;;;;9.94;100.00;101914.78;5020410;28;20207;-44
2022/10/17 02:06:34;;;;;;;18.33;3.45;;;;;;;9.97;100.00;101918.31;5017794;28;20287;-44
2022/10/17 02:08:59;;;;;;;16.55;2.88;;;;;;;10.11;100.00;101918.91;5014818;28;20246;-43
2022/10/17 02:11:26;;;;;;;15.27;2.65;;;;;;;10.25;100.00;101909.72;5031040;28;20180;-44
2022/10/17 02:14:16;;;;;;;11.98;3.20;;;;;;;10.36;100.00;101906.88;5010603;28;20509;-44
2022/10/17 02:16:57;;;;;;;20.42;2.90;;;;;;;10.47;100.00;101910.22;5021311;28;20645;-44
2022/10/17 02:19:23;;;;;;;15.50;3.45;;;;;;;10.56;100.00;101917.19;5020551;28;20233;-45
2022/10/17 02:22:14;;;;;;;11.85;2.92;;;;;;;10.59;100.00;101903.75;5013263;28;20239;-45
2022/10/17 02:25:05;;;;;;;12.32;2.65;;;;;;;10.61;100.00;101913.50;5014652;28;20612;-46
2022/10/17 02:27:55;;;;;;;18.40;3.88;;;;;;;10.63;100.00;101908.13;5007451;28;20184;-46
2022/10/17 02:30:30;;;;;;;11.85;2.40;;;;;;;10.68;100.00;101900.84;5014249;28;20215;-45
2022/10/17 02:33:22;;;;;;;14.57;3.33;;;;;;;10.73;100.00;101904.31;5022443;28;20413;-48
2022/10/17 02:35:52;;;;;;;10.77;2.35;;;;;;;10.75;100.00;101899.78;5018425;28;20184;-47
2022/10/17 02:38:20;;;;;;;13.10;2.40;;;;;;;10.78;100.00;101899.75;5024674;28;20187;-46
2022/10/17 02:40:49;;;;;;;11.52;2.88;;;;;;;10.86;100.00;101902.25;5013973;28;20674;-45
2022/10/17 02:43:15;;;;;;;8.88;1.95;;;;;;;10.88;100.00;101889.69;5031965;28;20216;-46
2022/10/17 02:45:40;;;;;;;14.98;2.67;;;;;;;10.88;100.00;101887.88;5008575;28;20192;-46
2022/10/17 02:48:18;;;;;;;12.30;2.35;;;;;;;10.92;100.00;101876.16;5019664;28;20278;-46
2022/10/17 02:50:49;;;;;;;15.00;2.55;;;;;;;10.95;100.00;101877.91;5028428;28;20188;-45
2022/10/17 02:53:24;;;;;;;16.33;2.88;;;;;;;10.93;100.00;101882.41;5030949;28;20214;-45
2022/10/17 02:55:55;;;;;;;10.68;2.85;;;;;;;10.92;100.00;101881.53;5018903;28;20250;-45
2022/10/17 02:58:30;;;;;;;14.68;2.30;;;;;;;10.92;100.00;101880.66;5012600;28;20187;-46
2022/10/17 03:00:57;;;;;;;17.33;2.47;;;;;;;10.94;100.00;101873.47;5005286;28;20270;-44
2022/10/17 03:03:26;;;;;;;17.75;3.20;;;;;;;10.98;100.00;101860.88;5041943;28;20577;-46
2022/10/17 03:05:52;;;;;;;16.08;3.42;;;;;;;10.96;100.00;101854.66;4999219;28;20207;-45
2022/10/17 03:08:22;;;;;;;12.20;2.35;;;;;;;10.95;100.00;101852.88;5017916;28;20282;-44
2022/10/17 03:10:48;;;;;;;8.20;1.75;;;;;;;10.96;100.00;101860.03;5017414;28;20198;-45
2022/10/17 03:13:15;;;;;;;9.98;2.20;;;;;;;11.03;100.00;101859.84;5010649;28;20839;-47
2022/10/17 03:15:41;;;;;;;16.58;2.45;;;;;;;11.02;100.00;101863.44;5005930;28;20208;-46
2022/10/17 03:18:08;;;;;;;12.73;2.55;;;;;;;11.03;100.00;101867.88;5040116;28;20191;-45
2022/10/17 03:20:34;;;;;;;17.92;2.72;;;;;;;11.00;100.00;101865.28;5031881;28;20393;-45
2022/10/17 03:23:00;;;;;;;13.93;2.60;;;;;;;11.06;100.00;101869.59;5015624;28;20249;-46
2022/10/17 03:25:27;;;;;;;8.30;2.40;;;;;;;11.05;100.00;101859.81;5006205;28;20192;-46
2022/10/17 03:27:52;;;;;;;11.52;2.42;;;;;;;11.03;100.00;101865.19;5017639;28;20321;-45
2022/10/17 03:30:18;;;;;;;7.47;2.33;;;;;;;11.07;100.00;101853.50;5020568;28;20318;-44
2022/10/17 03:32:45;;;;;;;10.95;2.20;;;;;;;11.03;100.00;101857.16;5036482;28;20222;-44
2022/10/17 03:35:10;;;;;;;12.05;2.08;;;;;;;11.05;100.00;101854.44;5030692;28;20204;-45
2022/10/17 03:37:37;;;;;;;12.07;2.40;;;;;;;11.13;100.00;101868.56;5016571;28;20200;-47
2022/10/17 03:40:03;;;;;;;6.57;1.80;;;;;;;11.12;100.00;101866.78;5029590;28;20233;-44
2022/10/17 03:42:30;;;;;;;8.18;1.85;;;;;;;11.16;100.00;101851.50;5013177;28;20204;-44
2022/10/17 03:44:56;;;;;;;12.60;2.08;;;;;;;11.23;100.00;101851.31;4996722;28;20247;-45
2022/10/17 03:47:22;;;;;;;6.97;1.90;;;;;;;11.17;100.00;101832.66;5025171;28;20598;-46
2022/10/17 03:49:48;;;;;;;6.32;1.90;;;;;;;11.17;100.00;101831.81;5017644;28;20195;-47
2022/10/17 03:52:15;;;;;;;11.18;1.70;;;;;;;11.20;100.00;101837.09;5013807;28;20915;-46
2022/10/17 03:54:40;;;;;;;9.52;1.92;;;;;;;11.30;100.00;101831.47;5024496;28;20230;-50
2022/10/17 03:57:06;;;;;;;8.68;1.75;;;;;;;11.36;100.00;101832.22;5028423;28;20642;-50
2022/10/17 03:59:32;;;;;;;6.75;2.00;;;;;;;11.40;100.00;101836.59;5004327;28;20270;-49
2022/10/17 04:02:03;;;;;;;5.38;1.65;;;;;;;11.44;100.00;101841.84;5020294;28;20236;-49
2022/10/17 04:04:28;;;;;;;10.10;2.10;;;;;;;11.54;100.00;101838.03;5032852;28;20669;-49
2022/10/17 04:06:54;;;;;;;7.40;1.50;;;;;;;11.54;100.00;101838.03;5016241;28;20192;-50
2022/10/17 04:09:19;;;;;;;6.57;1.67;;;;;;;11.59;100.00;101845.03;5024047;28;20194;-50
2022/10/17 04:11:52;;;;;;;6.78;1.58;;;;;;;11.65;100.00;101831.47;5014400;28;20238;-48
2022/10/17 04:14:18;;;;;;;9.23;1.85;;;;;;;11.63;100.00;101828.84;5015804;28;20251;-49
2022/10/17 04:16:44;;;;;;;8.45;1.80;;;;;;;11.65;100.00;101823.41;5040923;28;20199;-48
2022/10/17 04:19:14;;;;;;;6.13;1.50;;;;;;;11.70;100.00;101821.50;5014281;28;20685;-48
2022/10/17 04:21:44;;;;;;;7.95;1.80;;;;;;;11.75;100.00;101815.06;4999587;28;20203;-49
2022/10/17 04:24:10;;;;;;;8.20;3.70;;;;;;;11.73;100.00;101821.41;5018002;28;20200;-50
2022/10/17 04:26:56;;;;;;;6.70;1.38;;;;;;;11.66;100.00;101817.13;5008969;28;20234;-50
2022/10/17 04:29:25;;;;;;;8.20;2.47;;;;;;;11.68;100.00;101818.84;5008152;28;20737;-49
2022/10/17 04:31:56;;;;;;;5.65;1.60;;;;;;;11.69;100.00;101825.09;5020975;28;20314;-48
2022/10/17 04:34:29;;;;;;;7.15;1.50;;;;;;;11.66;100.00;101831.44;5013271;28;20292;-50
2022/10/17 04:36:55;;;;;;;8.55;1.90;;;;;;;11.65;100.00;101823.41;5013105;28;20381;-49
2022/10/17 04:39:21;;;;;;;4.53;2.15;;;;;;;11.71;100.00;101821.44;5028732;28;20195;-51
2022/10/17 04:41:46;;;;;;;8.85;1.80;;;;;;;11.70;100.00;101814.31;5014143;28;20195;-50
2022/10/17 04:44:12;;;;;;;11.93;1.83;;;;;;;11.70;100.00;101803.59;5030334;28;20207;-46
2022/10/17 04:46:42;;;;;;;7.53;1.95;;;;;;;11.76;100.00;101799.84;5015369;28;20323;-48
2022/10/17 04:49:08;;;;;;;6.95;2.15;;;;;;;11.74;100.00;101790.94;5013175;28;20222;-51
2022/10/17 04:51:34;;;;;;;6.65;1.83;;;;;;;11.77;100.00;101796.25;4995030;28;20822;-51
2022/10/17 04:54:12;;;;;;;9.88;1.88;;;;;;;11.75;100.00;101792.72;5013557;28;20204;-51
2022/10/17 04:56:41;;;;;;;8.38;1.70;;;;;;;11.72;100.00;101788.31;5012439;28;20204;-48
2022/10/17 04:59:07;;;;;;;8.82;1.60;;;;;;;11.78;100.00;101779.19;5017574;28;20313;-50
2022/10/17 05:01:33;;;;;;;8.55;1.70;;;;;;;11.74;100.00;101780.19;5016803;28;20203;-47
2022/10/17 05:03:59;;;;;;;10.38;1.70;;;;;;;11.77;100.00;101772.09;5011469;28;20208;-49
2022/10/17 05:06:30;;;;;;;5.97;1.55;;;;;;;11.82;100.00;101770.13;5002495;28;20187;-48
2022/10/17 05:09:25;;;;;;;5.80;1.83;;;;;;;11.92;100.00;101768.13;4940443;28;20207;-48
2022/10/17 05:11:51;;;;;;;7.28;1.50;;;;;;;11.97;100.00;101776.03;5017336;28;20246;-48
2022/10/17 05:14:17;;;;;;;8.43;1.80;;;;;;;11.96;100.00;101767.09;5013135;28;20234;-47
2022/10/17 05:16:44;;;;;;;8.30;2.00;;;;;;;12.05;100.00;101760.59;5016117;28;20191;-47
2022/10/17 05:19:10;;;;;;;10.35;1.60;;;;;;;12.07;100.00;101758.72;5010697;28;20225;-46
2022/10/17 05:21:42;;;;;;;3.83;1.45;;;;;;;12.14;100.00;101758.50;5014245;28;20195;-47
2022/10/17 05:24:09;;;;;;;7.47;2.00;;;;;;;12.16;100.00;101755.78;5013954;28;20681;-47
2022/10/17 05:26:37;;;;;;;3.60;1.20;;;;;;;12.18;100.00;101759.28;5000290;28;20183;-48
2022/10/17 05:29:03;;;;;;;4.35;1.40;;;;;;;12.15;100.00;101759.38;5009545;28;20846;-46
2022/10/17 05:31:31;;;;;;;11.55;2.10;;;;;;;12.15;100.00;101757.56;5008704;28;20251;-46
2022/10/17 05:34:01;;;;;;;4.82;1.30;;;;;;;12.28;100.00;101754.50;5010298;28;20239;-47
2022/10/17 05:36:29;;;;;;;6.53;1.30;;;;;;;12.36;100.00;101756.03;5019833;28;20758;-47
2022/10/17 05:38:54;;;;;;;3.08;1.17;;;;;;;12.34;100.00;101741.75;5023722;28;20275;-45
2022/10/17 05:41:20;;;;;;;4.15;1.30;;;;;;;12.43;100.00;101763.91;4998110;28;20185;-47
2022/10/17 05:43:49;;;;;;;6.57;1.55;;;;;;;12.43;100.00;101747.78;5007769;28;20199;-48
2022/10/17 05:46:18;;;;;;;6.38;1.55;;;;;;;12.41;100.00;101749.63;5027242;28;20192;-48
2022/10/17 05:48:44;;;;;;;3.60;1.00;;;;;;;12.42;100.00;101743.31;5024920;28;20200;-48
2022/10/17 05:51:10;;;;;;;5.88;1.27;;;;;;;12.31;100.00;101728.44;5004043;28;20222;-48
2022/10/17 05:53:38;;;;;;;4.20;1.08;;;;;;;12.35;100.00;101731.88;5022755;28;20231;-46
2022/10/17 05:56:10;;;;;;;3.88;1.35;;;;;;;12.32;100.00;101727.50;4999381;28;20184;-47
2022/10/17 05:58:38;;;;;;;5.95;1.23;;;;;;;12.35;100.00;101721.13;5038664;28;20194;-46
2022/10/17 06:01:05;;;;;;;8.43;1.90;;;;;;;12.34;100.00;101728.31;5019568;28;20195;-46
2022/10/17 06:03:32;;;;;;;4.10;1.27;;;;;;;12.34;100.00;101730.13;5030936;28;20195;-47
2022/10/17 06:06:06;;;;;;;4.30;1.42;;;;;;;12.33;100.00;101742.72;5021516;28;20235;-48
2022/10/17 06:08:32;;;;;;;2.33;1.38;;;;;;;12.30;100.00;101726.66;5013053;28;20191;-47
2022/10/17 06:10:58;;;;;;;3.67;1.50;;;;;;;12.29;100.00;101735.66;5017174;28;20236;-46
2022/10/17 06:13:24;;;;;;;3.05;1.33;;;;;;;12.23;100.00;101725.09;5034933;28;20249;-45
2022/10/17 06:15:50;;;;;;;2.22;1.38;;;;;;;12.25;100.00;101719.69;5019872;28;20196;-44
2022/10/17 06:18:17;;;;;;;7.82;1.58;;;;;;;12.28;100.00;101723.13;5026644;28;20274;-44
2022/10/17 06:20:42;;;;;;;5.57;1.40;;;;;;;12.26;100.00;101725.00;5018644;28;20199;-47
2022/10/17 06:23:07;;;;;;;6.25;1.55;;;;;;;12.33;100.00;101707.78;5016855;28;20239;-49
2022/10/17 06:25:50;;;;;;;3.58;1.20;;;;;;;12.32;100.00;101719.44;5019852;28;20176;-44
2022/10/17 06:28:15;;;;;;;4.72;1.27;;;;;;;12.30;100.00;101712.34;5010669;28;20188;-49
2022/10/17 06:30:41;;;;;;;3.33;1.33;;;;;;;12.31;100.00;101714.09;5023017;28;20194;-43
2022/10/17 06:33:07;;;;;;;6.97;1.67;;;;;;;12.39;100.00;101709.38;5027239;28;20220;-45
2022/10/17 06:35:33;;;;;;;3.10;1.50;;;;;;;12.42;100.00;101719.13;5045372;28;20187;-42
2022/10/17 06:37:59;;;;;;;5.65;1.50;;;;;;;12.47;100.00;101712.69;5026347;28;20193;-43
2022/10/17 06:40:24;;;;;;;3.30;1.10;;;;;;;12.53;100.00;101717.88;5018425;28;20223;-46
2022/10/17 06:42:50;;;;;;;4.93;1.35;;;;;;;12.56;100.00;101701.63;5029726;28;20211;-48
2022/10/17 06:45:24;;;;;;;2.95;1.10;;;;;;;12.61;100.00;101698.81;5019834;28;20180;-45
2022/10/17 06:48:01;;;;;;;5.82;1.52;;;;;;;12.72;100.00;101704.69;5017479;28;20202;-46
2022/10/17 06:50:40;;;;;;;3.30;1.08;;;;;;;12.89;100.00;101704.13;5011112;28;20708;-46
2022/10/17 06:53:11;;;;;;;3.35;1.30;;;;;;;12.93;100.00;101715.69;5024804;28;20206;-44
2022/10/17 06:56:00;;;;;;;3.78;1.40;;;;;;;12.95;100.00;101709.31;5031865;28;20265;-46
2022/10/17 06:58:50;;;;;;;5.60;1.50;;;;;;;13.05;100.00;101723.31;5025788;28;20245;-45
2022/10/17 07:01:30;;;;;;;4.55;1.25;;;;;;;13.06;100.00;101714.34;5027736;28;20613;-44
2022/10/17 07:03:58;;;;;;;4.20;1.30;;;;;;;13.16;100.00;101713.09;5011943;28;20209;-45
2022/10/17 07:06:24;;;;;;;4.65;1.30;;;;;;;13.16;100.00;101718.47;5031676;28;20199;-45
2022/10/17 07:08:51;;;;;;;2.60;1.55;;;;;;;13.26;100.00;101716.31;5014098;28;20515;-45
2022/10/17 07:11:19;;;;;;;1.38;1.13;;;;;;;13.34;100.00;101716.09;5027627;28;20183;-49
2022/10/17 07:13:48;;;;;;;4.65;1.48;;;;;;;13.36;100.00;101725.88;5021579;28;20294;-47
2022/10/17 07:16:15;;;;;;;2.75;1.10;;;;;;;13.46;100.00;101717.47;5039815;28;20255;-49
2022/10/17 07:18:42;;;;;;;3.17;1.25;;;;;;;13.44;100.00;101716.63;5011747;28;20185;-45
2022/10/17 07:21:08;;;;;;;7.05;1.30;;;;;;;13.50;100.00;101722.69;5006800;28;20286;-48
2022/10/17 07:23:35;;;;;;;3.53;1.00;;;;;;;13.51;99.87;101731.63;5026375;28;20625;-48
2022/10/17 07:26:07;;;;;;;2.03;1.02;;;;;;;13.52;99.98;101728.03;5022101;28;20245;-45
2022/10/17 07:28:36;;;;;;;2.83;1.20;;;;;;;13.75;99.79;101721.78;5018169;28;20183;-48
2022/10/17 07:31:15;;;;;;;3.50;1.50;;;;;;;13.69;99.48;101728.28;5025468;28;20191;-43
2022/10/17 07:33:42;;;;;;;3.03;1.30;;;;;;;13.71;99.49;101729.09;5039320;28;20225;-46
2022/10/17 07:36:08;;;;;;;2.38;1.10;;;;;;;13.72;99.54;101736.22;5026448;28;20247;-44
2022/10/17 07:38:35;;;;;;;3.03;1.40;;;;;;;13.73;99.62;101729.94;5026434;28;20582;-49
2022/10/17 07:41:02;;;;;;;2.47;1.33;;;;;;;13.78;99.42;101717.16;5029870;28;20198;-46
2022/10/17 07:43:29;;;;;;;5.07;1.30;;;;;;;13.85;99.43;101717.81;5011836;28;20361;-45
2022/10/17 07:45:54;;;;;;;2.03;1.38;;;;;;;13.84;99.77;101713.38;4994466;28;20192;-44
2022/10/17 07:48:22;;;;;;;2.15;1.15;;;;;;;13.91;99.83;101732.88;5014752;28;20222;-48
2022/10/17 07:50:48;;;;;;;2.20;1.20;;;;;;;13.88;99.83;101722.19;5026502;28;20180;-46
2022/10/17 07:53:14;;;;;;;4.20;1.52;;;;;;;14.05;99.90;101725.13;5022493;28;20712;-48
2022/10/17 07:55:41;;;;;;;2.65;1.33;;;;;;;14.08;99.73;101726.81;5014560;28;20658;-47
2022/10/17 07:58:07;;;;;;;5.50;1.73;;;;;;;14.03;99.55;101721.59;5040062;28;20187;-48
2022/10/17 08:00:33;;;;;;;4.68;1.40;;;;;;;14.21;99.54;101714.63;5025296;28;20196;-48
2022/10/17 08:02:59;;;;;;;3.05;1.80;;;;;;;14.35;99.38;101696.09;5022713;28;20287;-47
2022/10/17 08:05:25;;;;;;;4.20;1.38;;;;;;;14.42;99.35;101705.69;5029746;28;20266;-46
2022/10/17 08:07:50;;;;;;;4.53;1.42;;;;;;;14.57;98.93;101697.97;5024697;28;20529;-48
2022/10/17 08:10:16;;;;;;;6.43;1.55;;;;;;;14.64;98.46;101699.47;5034550;28;20171;-47
2022/10/17 08:12:42;;;;;;;6.82;1.67;;;;;;;14.75;98.19;101704.41;5035323;28;20207;-50
2022/10/17 08:15:08;;;;;;;6.43;1.50;;;;;;;14.79;98.01;101697.94;5023703;28;20270;-47
2022/10/17 08:17:35;;;;;;;4.55;1.45;;;;;;;14.94;97.97;101694.59;5012114;28;20200;-45
2022/10/17 08:20:01;;;;;;;4.53;1.40;;;;;;;14.80;97.66;101697.91;5022541;28;20188;-48
2022/10/17 08:22:26;;;;;;;5.22;1.88;;;;;;;14.57;98.25;101682.66;5023456;28;20211;-48
2022/10/17 08:24:51;;;;;;;2.50;1.60;;;;;;;14.57;98.72;101677.25;5036381;28;20266;-47
2022/10/17 08:27:22;;;;;;;1.70;1.60;;;;;;;14.57;99.17;101671.00;5039839;28;20181;-47
2022/10/17 08:29:51;;;;;;;3.53;1.58;;;;;;;14.57;99.70;101682.66;5024589;28;20187;-47
2022/10/17 08:32:19;;;;;;;3.70;1.60;;;;;;;14.47;99.85;101683.91;5025587;28;20192;-47
2022/10/17 08:34:44;;;;;;;2.90;1.45;;;;;;;14.39;100.00;101683.38;5026906;28;20281;-48
2022/10/17 08:37:12;;;;;;;2.63;1.90;;;;;;;14.35;100.00;101685.31;5024366;28;20191;-47
2022/10/17 08:39:37;;;;;;;3.88;1.60;;;;;;;14.37;100.00;101679.88;5036154;28;20194;-49
2022/10/17 08:42:29;;;;;;;3.25;1.70;;;;;;;14.37;100.00;101680.75;5037661;28;20187;-48
2022/10/17 08:45:03;;;;;;;2.05;1.70;;;;;;;14.51;100.00;101695.47;5027885;28;20213;-47
2022/10/17 08:47:36;;;;;;;3.03;1.92;;;;;;;14.49;100.00;101690.13;5028222;28;20185;-49
2022/10/17 08:50:05;;;;;;;5.40;1.90;;;;;;;14.50;100.00;101683.81;5027290;28;20177;-48
2022/10/17 08:52:40;;;;;;;2.97;1.63;;;;;;;14.41;100.00;101666.19;5027606;28;20239;-47
2022/10/17 08:55:25;;;;;;;4.00;1.67;;;;;;;14.42;100.00;101667.06;5041344;28;20190;-46
2022/10/17 08:57:51;;;;;;;3.97;1.92;;;;;;;14.45;100.00;101666.94;5031459;28;20207;-45
2022/10/17 09:00:18;;;;;;;2.70;1.45;;;;;;;14.47;100.00;101669.56;5020635;28;20263;-46
2022/10/17 09:02:56;;;;;;;2.30;2.00;;;;;;;14.43;100.00;101652.66;5025715;28;20211;-46
2022/10/17 09:05:48;;;;;;;3.65;1.80;;;;;;;14.40;100.00;101645.56;5023290;28;20870;-46
2022/10/17 09:08:17;;;;;;;3.53;1.98;;;;;;;14.38;100.00;101642.03;5037754;28;20270;-46
2022/10/17 09:10:53;;;;;;;4.40;1.80;;;;;;;14.38;100.00;101646.56;5039951;28;20179;-45
2022/10/17 09:13:42;;;;;;;3.78;1.85;;;;;;;14.40;100.00;101644.69;5028785;28;20815;-47
2022/10/17 09:16:10;;;;;;;4.40;1.92;;;;;;;14.40;100.00;101647.38;5026355;28;20185;-47
2022/10/17 09:18:39;;;;;;;2.85;1.83;;;;;;;14.44;100.00;101657.09;5030937;28;20681;-46
2022/10/17 09:21:30;;;;;;;3.78;2.00;;;;;;;14.51;100.00;101652.34;5021554;28;20675;-48
2022/10/17 09:24:03;;;;;;;3.75;2.20;;;;;;;14.58;100.00;101654.75;5037282;28;20199;-47
2022/10/17 09:26:29;;;;;;;5.72;2.00;;;;;;;14.62;100.00;101647.41;5033260;28;20180;-49
2022/10/17 09:28:58;;;;;;;7.05;2.10;;;;;;;14.72;100.00;101648.78;5025561;28;20203;-47
2022/10/17 09:31:44;;;;;;;3.67;1.85;;;;;;;14.98;100.00;101647.66;5031833;28;20191;-46
2022/10/17 09:34:10;;;;;;;4.22;1.98;;;;;;;15.21;100.00;101643.06;5025673;28;20222;-46
2022/10/17 09:36:38;;;;;;;2.25;2.05;;;;;;;15.44;100.00;101639.31;5004789;28;20179;-47
2022/10/17 09:39:18;;;;;;;5.43;2.42;;;;;;;15.68;100.00;101636.41;5041255;28;20657;-46
2022/10/17 09:41:50;;;;;;;5.47;2.45;;;;;;;15.95;100.00;101632.44;5034203;28;20202;-46
2022/10/17 09:44:22;;;;;;;3.10;1.85;;;;;;;16.06;100.00;101632.81;5029301;28;20195;-48
2022/10/17 09:47:13;;;;;;;1.83;1.73;;;;;;;16.22;100.00;101627.56;5028215;28;20198;-48
2022/10/17 09:49:41;;;;;;;4.15;2.40;;;;;;;16.20;99.89;101639.38;5023450;28;20593;-47
2022/10/17 09:52:15;;;;;;;3.70;1.83;;;;;;;16.44;99.57;101658.91;5037212;28;20403;-47
2022/10/17 09:55:06;;;;;;;6.15;2.30;;;;;;;16.69;98.82;101659.44;5021210;28;20331;-47
2022/10/17 09:57:52;;;;;;;2.28;1.92;;;;;;;16.80;97.96;101656.22;5024842;28;20199;-46
2022/10/17 10:00:26;;;;;;;2.55;1.90;;;;;;;16.89;97.09;101658.47;5024785;28;20189;-47
2022/10/17 10:03:07;;;;;;;2.88;2.20;;;;;;;16.87;96.98;101648.66;5021686;28;20218;-46
2022/10/17 10:05:32;;;;;;;4.63;2.13;;;;;;;16.95;97.07;101651.88;5029276;28;20199;-47
2022/10/17 10:08:03;;;;;;;7.07;2.35;;;;;;;17.04;97.05;101643.25;5037078;28;20226;-46
2022/10/17 10:10:30;;;;;;;2.10;2.00;;;;;;;17.07;97.15;101645.78;5034633;28;20269;-47
2022/10/17 10:13:19;;;;;;;4.00;2.30;;;;;;;16.92;97.16;101635.75;5025461;28;20666;-48
2022/10/17 10:15:47;;;;;;;2.40;2.17;;;;;;;16.95;97.84;101649.16;5002554;28;20676;-48
2022/10/17 10:18:25;;;;;;;2.50;1.98;;;;;;;17.08;97.61;101644.00;5010964;28;20192;-50
2022/10/17 10:21:08;;;;;;;3.95;2.28;;;;;;;17.52;97.34;101634.44;5019969;28;20240;-49
2022/10/17 10:23:38;;;;;;;9.30;2.85;;;;;;;17.67;96.06;101648.03;5030527;28;20200;-44
2022/10/17 10:26:11;;;;;;;4.05;2.40;;;;;;;17.76;95.45;101638.50;5034279;28;20222;-47
2022/10/17 10:28:36;;;;;;;3.08;2.20;;;;;;;17.80;95.08;101628.34;5025192;28;20224;-47
2022/10/17 10:31:06;;;;;;;3.13;2.38;;;;;;;17.63;95.25;101643.72;5013453;28;20187;-46
2022/10/17 10:33:35;;;;;;;2.65;2.45;;;;;;;17.71;95.09;101619.78;5026447;28;20336;-46
2022/10/17 10:36:05;;;;;;;3.72;2.78;;;;;;;17.78;95.06;101633.00;5031128;28;20202;-48
2022/10/17 10:38:32;;;;;;;6.07;2.53;;;;;;;17.74;94.92;101640.41;5034677;28;20180;-47
2022/10/17 10:41:07;;;;;;;4.75;2.20;;;;;;;17.78;94.98;101638.44;5029449;28;20218;-49
2022/10/17 10:43:47;;;;;;;5.53;2.33;;;;;;;17.74;95.34;101653.09;5012612;28;20305;-48
2022/10/17 10:46:26;;;;;;;3.00;2.70;;;;;;;17.56;95.75;101660.38;5026074;28;20226;-49
2022/10/17 10:48:58;;;;;;;5.28;2.60;;;;;;;17.57;96.23;101651.31;5029292;28;20257;-47
2022/10/17 10:51:32;;;;;;;5.38;2.38;;;;;;;17.71;96.40;101644.19;5034903;28;20608;-54
2022/10/17 10:54:15;;;;;;;5.45;2.47;;;;;;;17.79;96.20;101642.88;5034632;28;20683;-51
2022/10/17 10:56:45;;;;;;;4.22;2.50;;;;;;;17.81;95.75;101633.69;5024701;28;20177;-49
2022/10/17 10:59:30;;;;;;;2.80;2.45;;;;;;;17.86;95.72;101631.66;5015718;28;20295;-48
2022/10/17 11:01:56;;;;;;;8.82;2.42;;;;;;;18.06;96.01;101627.81;5027057;28;20781;-47
2022/10/17 11:04:46;;;;;;;5.90;2.50;;;;;;;18.02;95.36;101628.94;5021093;28;20227;-45
2022/10/17 11:07:35;;;;;;;4.03;2.60;;;;;;;17.94;95.40;101635.75;5034656;28;20621;-51
2022/10/17 11:10:17;;;;;;;5.10;2.47;;;;;;;17.95;95.81;101630.25;5006341;28;20287;-50
2022/10/17 11:13:09;;;;;;;8.35;2.80;;;;;;;18.02;95.96;101631.66;5017748;28;20675;-50
2022/10/17 11:15:40;;;;;;;4.13;2.70;;;;;;;17.93;95.71;101643.03;5029647;28;20424;-52
2022/10/17 11:18:29;;;;;;;6.88;2.70;;;;;;;17.95;96.45;101645.63;5030537;28;20562;-49
2022/10/17 11:21:22;;;;;;;5.78;2.70;;;;;;;17.91;96.42;101650.38;5036502;28;20204;-48
2022/10/17 11:24:15;;;;;;;6.80;3.05;;;;;;;17.84;97.17;101660.69;5033433;28;20200;-48
2022/10/17 11:26:48;;;;;;;6.25;3.00;;;;;;;17.84;97.37;101654.34;5026573;28;21157;-48
2022/10/17 11:29:13;;;;;;;3.42;2.70;;;;;;;17.92;97.34;101646.69;5023474;28;20346;-50
2022/10/17 11:31:47;;;;;;;6.78;3.05;;;;;;;17.82;97.24;101661.69;5026198;28;20268;-50
2022/10/17 11:34:24;;;;;;;5.00;2.83;;;;;;;17.78;97.67;101660.13;5036102;28;20203;-48
2022/10/17 11:36:55;;;;;;;4.20;3.13;;;;;;;17.80;98.07;101669.00;5035942;28;20196;-49
2022/10/17 11:45:15;;;;;;;9.15;3.50;;;;;;;17.91;98.11;101672.06;4997601;28;20303;-47